D/T METAR WX W/DIR W/SPE G/SPE TEMP DEWP
23/08/19 17:50 EGSC 231650Z 16011KT 9999 FEW048 26/15 Q1022 SSE (160°) 12.7mph 26°C 15°C
23/08/19 16:50 EGSC 231550Z 17007KT 9999 FEW048 26/14 Q1022 S (170°) 8.1mph 26°C 14°C
23/08/19 16:20 EGSC 231520Z 16009KT 9999 FEW048 28/14 Q1022 SSE (160°) 10.4mph 28°C 14°C
23/08/19 15:20 EGSC 231420Z 20006KT 140V250 9999 FEW048 27/14 Q1023 SSW (200°) 6.9mph 27°C 14°C
23/08/19 14:50 EGSC 231350Z 17007KT 120V250 9999 FEW048 27/13 Q1023 S (170°) 8.1mph 27°C 13°C
23/08/19 14:20 EGSC 231320Z 17004KT 120V220 9999 FEW048 26/14 Q1023 S (170°) 4.6mph 26°C 14°C
23/08/19 13:20 EGSC 231220Z 22005KT 150V280 9999 FEW045 26/14 Q1024 SW (220°) 5.8mph 26°C 14°C
23/08/19 12:50 EGSC 231150Z 19006KT 110V250 9999 FEW040 25/14 Q1024 S (190°) 6.9mph 25°C 14°C
23/08/19 12:20 EGSC 231120Z 23007KT 170V290 9999 FEW040 24/14 Q1024 SW (230°) 8.1mph 24°C 14°C
23/08/19 11:20 EGSC 231020Z 22006KT 180V250 9999 FEW040 23/15 Q1025 SW (220°) 6.9mph 23°C 15°C
23/08/19 10:50 EGSC 230950Z 22008KT 9999 FEW027 22/15 Q1025 SW (220°) 9.2mph 22°C 15°C
23/08/19 09:50 EGSC 230850Z 19005KT 9999 FEW024 20/15 Q1025 S (190°) 5.8mph 20°C 15°C
23/08/19 09:20 EGSC 230820Z 21004KT 150V240 9999 FEW022 19/15 Q1025 SSW (210°) 4.6mph 19°C 15°C
23/08/19 08:20 EGSC 230720Z VRB03KT CAVOK 17/14 Q1025 N (0°) 3.5mph 17°C 14°C
23/08/19 07:50 EGSC 230650Z 23004KT 160V260 CAVOK 16/14 Q1025 SW (230°) 4.6mph 16°C 14°C
22/08/19 17:50 EGSC 221650Z 27013KT 9999 SCT044 22/12 Q1023 W (270°) 15.0mph 22°C 12°C
22/08/19 17:20 EGSC 221620Z 25014KT 9999 SCT044 23/12 Q1023 WSW (250°) 16.1mph 23°C 12°C
22/08/19 16:50 EGSC 221550Z 26014KT 9999 SCT042 23/12 Q1023 W (260°) 16.1mph 23°C 12°C
22/08/19 16:20 EGSC 221520Z 25015KT 9999 SCT042 24/12 Q1023 WSW (250°) 17.3mph 24°C 12°C
22/08/19 15:50 EGSC 221450Z 22012KT 9999 SCT042 23/13 Q1023 SW (220°) 13.8mph 23°C 13°C
22/08/19 15:20 EGSC 221420Z 24014KT 9999 SCT042 23/13 Q1023 WSW (240°) 16.1mph 23°C 13°C
22/08/19 14:50 EGSC 221350Z 24015KT 9999 BKN042 23/13 Q1023 WSW (240°) 17.3mph 23°C 13°C
22/08/19 14:20 EGSC 221320Z 25014KT 9999 SCT042 23/13 Q1023 WSW (250°) 16.1mph 23°C 13°C
22/08/19 13:50 EGSC 221250Z 23014KT 9999 SCT038 23/13 Q1023 SW (230°) 16.1mph 23°C 13°C
22/08/19 13:20 EGSC 221220Z 23012KT 9999 SCT036 24/13 Q1023 SW (230°) 13.8mph 24°C 13°C
22/08/19 12:50 EGSC 221150Z 23013KT 9999 SCT035 23/13 Q1023 SW (230°) 15.0mph 23°C 13°C
22/08/19 12:20 EGSC 221120Z 22011KT 190V260 9999 FEW033 23/13 Q1023 SW (220°) 12.7mph 23°C 13°C
22/08/19 11:50 EGSC 221050Z 24011KT 9999 FEW027 22/13 Q1023 WSW (240°) 12.7mph 22°C 13°C
22/08/19 11:20 EGSC 221020Z 23012KT 9999 FEW027 21/13 Q1023 SW (230°) 13.8mph 21°C 13°C
22/08/19 10:20 EGSC 220920Z 24009KT 9999 FEW025 19/13 Q1024 WSW (240°) 10.4mph 19°C 13°C
22/08/19 09:50 EGSC 220850Z 25012KT CAVOK 18/12 Q1024 WSW (250°) 13.8mph 18°C 12°C
22/08/19 09:20 EGSC 220820Z 22008KT CAVOK 17/12 Q1024 SW (220°) 9.2mph 17°C 12°C
22/08/19 08:50 EGSC 220750Z 22008KT CAVOK 16/12 Q1024 SW (220°) 9.2mph 16°C 12°C
22/08/19 07:50 EGSC 220650Z 19007KT 170V230 CAVOK 14/12 Q1024 S (190°) 8.1mph 14°C 12°C
21/08/19 17:50 EGSC 211650Z 20010KT 9999 FEW048 22/10 Q1024 SSW (200°) 11.5mph 22°C 10°C
21/08/19 17:20 EGSC 211620Z 21010KT 9999 FEW046 22/10 Q1024 SSW (210°) 11.5mph 22°C 10°C
21/08/19 16:50 EGSC 211550Z 25011KT 9999 FEW046 23/10 Q1024 WSW (250°) 12.7mph 23°C 10°C
21/08/19 15:50 EGSC 211450Z 22010KT 170V240 9999 FEW046 23/09 Q1024 SW (220°) 11.5mph 23°C 9°C
21/08/19 15:20 EGSC 211420Z 23012KT 200V260 9999 SCT046 22/10 Q1025 SW (230°) 13.8mph 22°C 10°C
21/08/19 14:50 EGSC 211350Z 23006KT 9999 SCT046 21/10 Q1025 SW (230°) 6.9mph 21°C 10°C
21/08/19 14:20 EGSC 211320Z 23006KT 9999 SCT042 21/10 Q1025 SW (230°) 6.9mph 21°C 10°C
21/08/19 13:50 EGSC 211250Z 23006KT 170V270 9999 SCT040 21/11 Q1025 SW (230°) 6.9mph 21°C 11°C
21/08/19 13:20 EGSC 211220Z 19006KT 150V250 9999 SCT036 21/11 Q1026 S (190°) 6.9mph 21°C 11°C
21/08/19 12:50 EGSC 211150Z 22007KT 180V240 9999 SCT036 21/11 Q1026 SW (220°) 8.1mph 21°C 11°C
21/08/19 12:20 EGSC 211120Z 25009KT 210V270 9999 SCT035 21/12 Q1026 WSW (250°) 10.4mph 21°C 12°C
21/08/19 11:20 EGSC 211020Z 23008KT 190V270 9999 FEW035 19/11 Q1026 SW (230°) 9.2mph 19°C 11°C
21/08/19 10:50 EGSC 210950Z 25010KT 9999 FEW040 19/11 Q1027 WSW (250°) 11.5mph 19°C 11°C
21/08/19 10:20 EGSC 210920Z 22008KT 9999 FEW038 18/12 Q1027 SW (220°) 9.2mph 18°C 12°C